sensor_id;sensor_type;location;lat;lon;timestamp;P1;durP1;ratioP1;P2;durP2;ratioP2
54191;SDS011;40101;53.002;6.488;2023-07-20T00:01:56;2.90;;;1.95;;
54191;SDS011;40101;53.002;6.488;2023-07-20T00:04:22;4.05;;;2.60;;
54191;SDS011;40101;53.002;6.488;2023-07-20T00:06:48;2.65;;;2.30;;
54191;SDS011;40101;53.002;6.488;2023-07-20T00:09:13;3.90;;;2.10;;
54191;SDS011;40101;53.002;6.488;2023-07-20T00:11:39;3.97;;;2.53;;
54191;SDS011;40101;53.002;6.488;2023-07-20T00:14:05;3.00;;;2.70;;
54191;SDS011;40101;53.002;6.488;2023-07-20T00:16:31;4.00;;;2.33;;
54191;SDS011;40101;53.002;6.488;2023-07-20T00:18:57;2.72;;;2.30;;
54191;SDS011;40101;53.002;6.488;2023-07-20T00:21:23;4.88;;;3.25;;
54191;SDS011;40101;53.002;6.488;2023-07-20T00:23:48;2.92;;;2.50;;
54191;SDS011;40101;53.002;6.488;2023-07-20T00:26:14;3.03;;;2.70;;
54191;SDS011;40101;53.002;6.488;2023-07-20T00:28:40;3.05;;;2.55;;
54191;SDS011;40101;53.002;6.488;2023-07-20T00:31:05;3.05;;;2.28;;
54191;SDS011;40101;53.002;6.488;2023-07-20T00:33:31;3.10;;;2.80;;
54191;SDS011;40101;53.002;6.488;2023-07-20T00:35:57;3.30;;;2.88;;
54191;SDS011;40101;53.002;6.488;2023-07-20T00:38:22;4.53;;;3.15;;
54191;SDS011;40101;53.002;6.488;2023-07-20T00:40:48;3.78;;;3.10;;
54191;SDS011;40101;53.002;6.488;2023-07-20T00:43:14;3.80;;;2.90;;
54191;SDS011;40101;53.002;6.488;2023-07-20T00:45:40;8.25;;;3.17;;
54191;SDS011;40101;53.002;6.488;2023-07-20T00:48:06;3.45;;;3.13;;
54191;SDS011;40101;53.002;6.488;2023-07-20T00:50:33;3.03;;;2.65;;
54191;SDS011;40101;53.002;6.488;2023-07-20T00:53:00;3.70;;;3.40;;
54191;SDS011;40101;53.002;6.488;2023-07-20T00:55:28;4.22;;;2.97;;
54191;SDS011;40101;53.002;6.488;2023-07-20T00:57:54;3.90;;;3.30;;
54191;SDS011;40101;53.002;6.488;2023-07-20T01:00:19;3.25;;;2.95;;
54191;SDS011;40101;53.002;6.488;2023-07-20T01:02:45;4.85;;;3.08;;
54191;SDS011;40101;53.002;6.488;2023-07-20T01:05:12;3.75;;;3.28;;
54191;SDS011;40101;53.002;6.488;2023-07-20T01:12:58;3.33;;;3.03;;
54191;SDS011;40101;53.002;6.488;2023-07-20T01:15:26;5.40;;;3.38;;
54191;SDS011;40101;53.002;6.488;2023-07-20T01:17:52;3.92;;;3.63;;
54191;SDS011;40101;53.002;6.488;2023-07-20T01:20:18;3.60;;;3.30;;
54191;SDS011;40101;53.002;6.488;2023-07-20T01:33:46;4.72;;;3.20;;
54191;SDS011;40101;53.002;6.488;2023-07-20T01:36:13;4.10;;;3.70;;
54191;SDS011;40101;53.002;6.488;2023-07-20T01:38:41;4.50;;;3.95;;
54191;SDS011;40101;53.002;6.488;2023-07-20T01:41:07;3.30;;;3.00;;
54191;SDS011;40101;53.002;6.488;2023-07-20T01:43:34;4.63;;;3.95;;
54191;SDS011;40101;53.002;6.488;2023-07-20T01:45:59;3.97;;;3.20;;
54191;SDS011;40101;53.002;6.488;2023-07-20T01:48:25;3.63;;;3.33;;
54191;SDS011;40101;53.002;6.488;2023-07-20T01:50:50;3.55;;;3.25;;
54191;SDS011;40101;53.002;6.488;2023-07-20T01:53:16;2.97;;;2.72;;
54191;SDS011;40101;53.002;6.488;2023-07-20T01:55:42;3.42;;;3.13;;
54191;SDS011;40101;53.002;6.488;2023-07-20T01:58:08;10.15;;;3.67;;
54191;SDS011;40101;53.002;6.488;2023-07-20T02:00:34;6.63;;;3.83;;
54191;SDS011;40101;53.002;6.488;2023-07-20T02:03:01;4.00;;;3.60;;
54191;SDS011;40101;53.002;6.488;2023-07-20T02:05:27;6.63;;;3.63;;
54191;SDS011;40101;53.002;6.488;2023-07-20T02:07:53;7.10;;;3.45;;
54191;SDS011;40101;53.002;6.488;2023-07-20T02:10:18;6.47;;;2.92;;
54191;SDS011;40101;53.002;6.488;2023-07-20T02:12:44;3.03;;;2.25;;
54191;SDS011;40101;53.002;6.488;2023-07-20T02:15:10;3.33;;;2.80;;
54191;SDS011;40101;53.002;6.488;2023-07-20T02:17:35;2.85;;;2.60;;
54191;SDS011;40101;53.002;6.488;2023-07-20T02:20:02;3.67;;;2.53;;
54191;SDS011;40101;53.002;6.488;2023-07-20T02:22:28;3.00;;;2.80;;
54191;SDS011;40101;53.002;6.488;2023-07-20T02:24:53;2.88;;;2.67;;
54191;SDS011;40101;53.002;6.488;2023-07-20T02:27:19;2.78;;;2.58;;
54191;SDS011;40101;53.002;6.488;2023-07-20T02:29:45;3.97;;;3.20;;
54191;SDS011;40101;53.002;6.488;2023-07-20T02:32:10;3.25;;;2.80;;
54191;SDS011;40101;53.002;6.488;2023-07-20T02:34:36;3.40;;;3.10;;
54191;SDS011;40101;53.002;6.488;2023-07-20T02:37:01;4.05;;;3.45;;
54191;SDS011;40101;53.002;6.488;2023-07-20T02:39:28;2.90;;;2.67;;
54191;SDS011;40101;53.002;6.488;2023-07-20T02:41:54;3.22;;;2.92;;
54191;SDS011;40101;53.002;6.488;2023-07-20T02:44:19;2.40;;;2.20;;
54191;SDS011;40101;53.002;6.488;2023-07-20T02:46:45;4.15;;;2.35;;
54191;SDS011;40101;53.002;6.488;2023-07-20T02:49:11;2.85;;;2.60;;
54191;SDS011;40101;53.002;6.488;2023-07-20T02:51:37;3.30;;;3.00;;
54191;SDS011;40101;53.002;6.488;2023-07-20T02:54:03;3.20;;;2.90;;
54191;SDS011;40101;53.002;6.488;2023-07-20T02:56:28;3.60;;;2.63;;
54191;SDS011;40101;53.002;6.488;2023-07-20T02:58:54;2.75;;;2.55;;
54191;SDS011;40101;53.002;6.488;2023-07-20T03:01:20;2.70;;;2.50;;
54191;SDS011;40101;53.002;6.488;2023-07-20T03:03:46;2.53;;;2.33;;
54191;SDS011;40101;53.002;6.488;2023-07-20T03:06:15;2.22;;;2.03;;
54191;SDS011;40101;53.002;6.488;2023-07-20T03:08:42;4.22;;;2.47;;
54191;SDS011;40101;53.002;6.488;2023-07-20T03:11:16;3.65;;;2.30;;
54191;SDS011;40101;53.002;6.488;2023-07-20T03:13:42;2.60;;;2.40;;
54191;SDS011;40101;53.002;6.488;2023-07-20T03:16:08;3.13;;;2.35;;
54191;SDS011;40101;53.002;6.488;2023-07-20T03:18:39;2.65;;;2.22;;
54191;SDS011;40101;53.002;6.488;2023-07-20T03:21:05;8.75;;;2.13;;
54191;SDS011;40101;53.002;6.488;2023-07-20T03:23:32;2.70;;;1.98;;
54191;SDS011;40101;53.002;6.488;2023-07-20T03:25:58;3.17;;;2.17;;
54191;SDS011;40101;53.002;6.488;2023-07-20T03:28:23;2.97;;;2.20;;
54191;SDS011;40101;53.002;6.488;2023-07-20T03:30:53;1.15;;;1.05;;
54191;SDS011;40101;53.002;6.488;2023-07-20T03:33:21;2.53;;;1.30;;
54191;SDS011;40101;53.002;6.488;2023-07-20T03:35:47;2.28;;;2.08;;
54191;SDS011;40101;53.002;6.488;2023-07-20T03:38:13;2.20;;;2.00;;
54191;SDS011;40101;53.002;6.488;2023-07-20T03:40:38;1.60;;;1.50;;
54191;SDS011;40101;53.002;6.488;2023-07-20T03:43:04;1.70;;;1.60;;
54191;SDS011;40101;53.002;6.488;2023-07-20T03:45:29;1.27;;;1.17;;
54191;SDS011;40101;53.002;6.488;2023-07-20T03:47:55;2.10;;;1.90;;
54191;SDS011;40101;53.002;6.488;2023-07-20T03:50:21;2.38;;;1.83;;
54191;SDS011;40101;53.002;6.488;2023-07-20T03:52:47;2.30;;;2.05;;
54191;SDS011;40101;53.002;6.488;2023-07-20T03:55:12;2.20;;;2.00;;
54191;SDS011;40101;53.002;6.488;2023-07-20T03:57:38;2.67;;;2.38;;
54191;SDS011;40101;53.002;6.488;2023-07-20T04:00:04;3.05;;;1.75;;
54191;SDS011;40101;53.002;6.488;2023-07-20T04:02:32;2.28;;;1.80;;
54191;SDS011;40101;53.002;6.488;2023-07-20T04:04:58;2.15;;;1.95;;
54191;SDS011;40101;53.002;6.488;2023-07-20T04:07:24;1.60;;;1.50;;
54191;SDS011;40101;53.002;6.488;2023-07-20T04:09:49;1.20;;;1.10;;
54191;SDS011;40101;53.002;6.488;2023-07-20T04:12:15;1.80;;;1.10;;
54191;SDS011;40101;53.002;6.488;2023-07-20T04:14:41;1.33;;;1.20;;
54191;SDS011;40101;53.002;6.488;2023-07-20T04:17:07;1.13;;;1.02;;
54191;SDS011;40101;53.002;6.488;2023-07-20T04:19:32;1.70;;;1.35;;
54191;SDS011;40101;53.002;6.488;2023-07-20T04:21:58;1.38;;;1.27;;
54191;SDS011;40101;53.002;6.488;2023-07-20T04:24:24;1.52;;;1.42;;
54191;SDS011;40101;53.002;6.488;2023-07-20T04:26:49;1.20;;;1.10;;
54191;SDS011;40101;53.002;6.488;2023-07-20T04:29:15;1.95;;;0.93;;
54191;SDS011;40101;53.002;6.488;2023-07-20T04:31:41;1.52;;;1.10;;
54191;SDS011;40101;53.002;6.488;2023-07-20T04:34:06;3.50;;;1.30;;
54191;SDS011;40101;53.002;6.488;2023-07-20T04:36:32;1.52;;;1.42;;
54191;SDS011;40101;53.002;6.488;2023-07-20T04:38:57;1.45;;;1.35;;
54191;SDS011;40101;53.002;6.488;2023-07-20T04:41:23;9.50;;;1.40;;
54191;SDS011;40101;53.002;6.488;2023-07-20T04:43:50;1.40;;;1.30;;
54191;SDS011;40101;53.002;6.488;2023-07-20T04:46:15;1.27;;;1.17;;
54191;SDS011;40101;53.002;6.488;2023-07-20T04:48:43;1.10;;;1.00;;
54191;SDS011;40101;53.002;6.488;2023-07-20T04:51:08;2.55;;;1.10;;
54191;SDS011;40101;53.002;6.488;2023-07-20T04:53:35;3.72;;;1.83;;
54191;SDS011;40101;53.002;6.488;2023-07-20T04:56:01;1.92;;;1.83;;
54191;SDS011;40101;53.002;6.488;2023-07-20T04:58:26;2.03;;;1.55;;
54191;SDS011;40101;53.002;6.488;2023-07-20T05:00:52;2.10;;;1.90;;
54191;SDS011;40101;53.002;6.488;2023-07-20T05:03:18;2.55;;;1.92;;
54191;SDS011;40101;53.002;6.488;2023-07-20T05:05:44;4.72;;;2.03;;
54191;SDS011;40101;53.002;6.488;2023-07-20T05:08:09;2.80;;;2.13;;
54191;SDS011;40101;53.002;6.488;2023-07-20T05:10:35;3.10;;;2.35;;
54191;SDS011;40101;53.002;6.488;2023-07-20T05:13:00;3.08;;;2.15;;
54191;SDS011;40101;53.002;6.488;2023-07-20T05:15:26;3.00;;;2.30;;
54191;SDS011;40101;53.002;6.488;2023-07-20T05:17:52;2.65;;;2.28;;
54191;SDS011;40101;53.002;6.488;2023-07-20T05:20:17;6.68;;;3.03;;
54191;SDS011;40101;53.002;6.488;2023-07-20T05:22:43;3.42;;;2.80;;
54191;SDS011;40101;53.002;6.488;2023-07-20T05:25:10;2.88;;;2.60;;
54191;SDS011;40101;53.002;6.488;2023-07-20T05:27:36;4.95;;;2.83;;
54191;SDS011;40101;53.002;6.488;2023-07-20T05:30:03;2.60;;;2.40;;
54191;SDS011;40101;53.002;6.488;2023-07-20T05:32:30;2.13;;;1.92;;
54191;SDS011;40101;53.002;6.488;2023-07-20T05:34:56;2.90;;;1.98;;
54191;SDS011;40101;53.002;6.488;2023-07-20T05:37:21;2.03;;;1.83;;
54191;SDS011;40101;53.002;6.488;2023-07-20T05:39:47;1.65;;;1.42;;
54191;SDS011;40101;53.002;6.488;2023-07-20T05:42:13;1.40;;;1.30;;
54191;SDS011;40101;53.002;6.488;2023-07-20T05:44:39;1.90;;;1.45;;
54191;SDS011;40101;53.002;6.488;2023-07-20T05:47:05;3.47;;;1.30;;
54191;SDS011;40101;53.002;6.488;2023-07-20T05:49:31;2.28;;;1.13;;
54191;SDS011;40101;53.002;6.488;2023-07-20T05:51:57;2.15;;;1.10;;
54191;SDS011;40101;53.002;6.488;2023-07-20T05:54:25;3.53;;;1.05;;
54191;SDS011;40101;53.002;6.488;2023-07-20T05:56:51;1.25;;;1.10;;
54191;SDS011;40101;53.002;6.488;2023-07-20T05:59:18;2.92;;;0.80;;
54191;SDS011;40101;53.002;6.488;2023-07-20T06:01:44;1.90;;;0.73;;
54191;SDS011;40101;53.002;6.488;2023-07-20T06:04:13;1.88;;;1.10;;
54191;SDS011;40101;53.002;6.488;2023-07-20T06:06:39;1.58;;;0.80;;
54191;SDS011;40101;53.002;6.488;2023-07-20T06:09:04;1.38;;;0.75;;
54191;SDS011;40101;53.002;6.488;2023-07-20T06:11:34;1.60;;;0.77;;
54191;SDS011;40101;53.002;6.488;2023-07-20T06:14:01;1.25;;;0.80;;
54191;SDS011;40101;53.002;6.488;2023-07-20T06:16:26;6.20;;;0.75;;
54191;SDS011;40101;53.002;6.488;2023-07-20T06:18:52;3.25;;;0.60;;
54191;SDS011;40101;53.002;6.488;2023-07-20T06:21:18;1.20;;;0.55;;
54191;SDS011;40101;53.002;6.488;2023-07-20T06:23:43;1.00;;;0.43;;
54191;SDS011;40101;53.002;6.488;2023-07-20T06:26:09;0.93;;;0.50;;
54191;SDS011;40101;53.002;6.488;2023-07-20T06:28:35;2.28;;;0.80;;
54191;SDS011;40101;53.002;6.488;2023-07-20T06:31:01;1.48;;;0.50;;
54191;SDS011;40101;53.002;6.488;2023-07-20T06:33:28;0.85;;;0.52;;
54191;SDS011;40101;53.002;6.488;2023-07-20T06:35:54;0.75;;;0.40;;
54191;SDS011;40101;53.002;6.488;2023-07-20T06:38:20;1.95;;;1.08;;
54191;SDS011;40101;53.002;6.488;2023-07-20T06:40:46;2.10;;;0.50;;
54191;SDS011;40101;53.002;6.488;2023-07-20T06:43:12;3.47;;;0.55;;
54191;SDS011;40101;53.002;6.488;2023-07-20T06:45:37;2.55;;;0.60;;
54191;SDS011;40101;53.002;6.488;2023-07-20T06:48:03;2.90;;;0.85;;
54191;SDS011;40101;53.002;6.488;2023-07-20T06:50:29;3.83;;;0.82;;
54191;SDS011;40101;53.002;6.488;2023-07-20T06:52:55;1.08;;;0.35;;
54191;SDS011;40101;53.002;6.488;2023-07-20T06:55:20;0.93;;;0.30;;
54191;SDS011;40101;53.002;6.488;2023-07-20T06:57:46;1.55;;;0.32;;
54191;SDS011;40101;53.002;6.488;2023-07-20T07:00:12;1.35;;;0.40;;
54191;SDS011;40101;53.002;6.488;2023-07-20T07:02:38;2.13;;;0.75;;
54191;SDS011;40101;53.002;6.488;2023-07-20T07:05:04;2.88;;;0.90;;
54191;SDS011;40101;53.002;6.488;2023-07-20T07:07:30;0.88;;;0.40;;
54191;SDS011;40101;53.002;6.488;2023-07-20T07:09:56;2.10;;;0.75;;
54191;SDS011;40101;53.002;6.488;2023-07-20T07:12:21;2.30;;;0.50;;
54191;SDS011;40101;53.002;6.488;2023-07-20T07:14:47;3.33;;;0.70;;
54191;SDS011;40101;53.002;6.488;2023-07-20T07:17:13;2.03;;;0.40;;
54191;SDS011;40101;53.002;6.488;2023-07-20T07:19:39;3.72;;;0.90;;
54191;SDS011;40101;53.002;6.488;2023-07-20T07:22:05;1.27;;;0.73;;
54191;SDS011;40101;53.002;6.488;2023-07-20T07:24:31;1.55;;;0.70;;
54191;SDS011;40101;53.002;6.488;2023-07-20T07:26:59;1.45;;;0.63;;
54191;SDS011;40101;53.002;6.488;2023-07-20T07:29:25;1.52;;;0.45;;
54191;SDS011;40101;53.002;6.488;2023-07-20T07:31:51;1.67;;;0.63;;
54191;SDS011;40101;53.002;6.488;2023-07-20T07:34:16;1.45;;;0.70;;
54191;SDS011;40101;53.002;6.488;2023-07-20T07:36:43;1.27;;;0.50;;
54191;SDS011;40101;53.002;6.488;2023-07-20T07:39:08;1.23;;;0.65;;
54191;SDS011;40101;53.002;6.488;2023-07-20T07:41:35;3.45;;;0.75;;
54191;SDS011;40101;53.002;6.488;2023-07-20T07:44:01;2.92;;;0.95;;
54191;SDS011;40101;53.002;6.488;2023-07-20T07:46:26;2.83;;;0.60;;
54191;SDS011;40101;53.002;6.488;2023-07-20T07:48:52;1.27;;;0.52;;
54191;SDS011;40101;53.002;6.488;2023-07-20T07:51:18;3.13;;;0.65;;
54191;SDS011;40101;53.002;6.488;2023-07-20T07:53:45;1.88;;;0.70;;
54191;SDS011;40101;53.002;6.488;2023-07-20T07:56:11;2.67;;;0.73;;
54191;SDS011;40101;53.002;6.488;2023-07-20T07:58:36;2.08;;;0.63;;
54191;SDS011;40101;53.002;6.488;2023-07-20T08:01:03;2.67;;;0.60;;
54191;SDS011;40101;53.002;6.488;2023-07-20T08:03:29;1.95;;;0.82;;
54191;SDS011;40101;53.002;6.488;2023-07-20T08:05:54;2.25;;;1.00;;
54191;SDS011;40101;53.002;6.488;2023-07-20T08:08:20;2.47;;;0.75;;
54191;SDS011;40101;53.002;6.488;2023-07-20T08:10:46;5.25;;;1.05;;
54191;SDS011;40101;53.002;6.488;2023-07-20T08:13:13;1.08;;;0.50;;
54191;SDS011;40101;53.002;6.488;2023-07-20T08:15:39;1.35;;;0.50;;
54191;SDS011;40101;53.002;6.488;2023-07-20T08:18:06;2.67;;;0.80;;
54191;SDS011;40101;53.002;6.488;2023-07-20T08:20:33;1.27;;;0.60;;
54191;SDS011;40101;53.002;6.488;2023-07-20T08:23:00;0.82;;;0.60;;
54191;SDS011;40101;53.002;6.488;2023-07-20T08:25:26;2.30;;;0.70;;
54191;SDS011;40101;53.002;6.488;2023-07-20T08:27:52;2.53;;;0.65;;
54191;SDS011;40101;53.002;6.488;2023-07-20T08:30:20;0.95;;;0.47;;
54191;SDS011;40101;53.002;6.488;2023-07-20T08:32:47;2.40;;;0.73;;
54191;SDS011;40101;53.002;6.488;2023-07-20T08:35:12;1.58;;;0.80;;
54191;SDS011;40101;53.002;6.488;2023-07-20T08:37:40;2.13;;;0.52;;
54191;SDS011;40101;53.002;6.488;2023-07-20T08:40:05;4.18;;;0.73;;
54191;SDS011;40101;53.002;6.488;2023-07-20T08:42:35;2.40;;;1.00;;
54191;SDS011;40101;53.002;6.488;2023-07-20T08:45:01;3.05;;;0.88;;
54191;SDS011;40101;53.002;6.488;2023-07-20T08:47:31;2.00;;;0.75;;
54191;SDS011;40101;53.002;6.488;2023-07-20T08:49:57;1.73;;;0.70;;
54191;SDS011;40101;53.002;6.488;2023-07-20T08:52:24;0.75;;;0.55;;
54191;SDS011;40101;53.002;6.488;2023-07-20T08:54:50;2.85;;;0.60;;
54191;SDS011;40101;53.002;6.488;2023-07-20T08:57:18;3.03;;;0.70;;
54191;SDS011;40101;53.002;6.488;2023-07-20T08:59:47;0.90;;;0.60;;
54191;SDS011;40101;53.002;6.488;2023-07-20T09:02:14;1.55;;;0.70;;
54191;SDS011;40101;53.002;6.488;2023-07-20T09:04:44;2.15;;;0.70;;
54191;SDS011;40101;53.002;6.488;2023-07-20T09:07:09;0.68;;;0.65;;
54191;SDS011;40101;53.002;6.488;2023-07-20T09:09:39;1.13;;;0.63;;
54191;SDS011;40101;53.002;6.488;2023-07-20T09:12:12;2.38;;;0.95;;
54191;SDS011;40101;53.002;6.488;2023-07-20T09:14:39;1.52;;;0.70;;
54191;SDS011;40101;53.002;6.488;2023-07-20T09:17:12;1.02;;;0.63;;
54191;SDS011;40101;53.002;6.488;2023-07-20T09:19:45;3.95;;;0.90;;
54191;SDS011;40101;53.002;6.488;2023-07-20T09:22:11;1.67;;;0.75;;
54191;SDS011;40101;53.002;6.488;2023-07-20T09:24:37;4.20;;;1.23;;
54191;SDS011;40101;53.002;6.488;2023-07-20T09:27:03;1.80;;;0.93;;
54191;SDS011;40101;53.002;6.488;2023-07-20T09:29:29;1.42;;;0.77;;
54191;SDS011;40101;53.002;6.488;2023-07-20T09:32:13;2.45;;;0.88;;
54191;SDS011;40101;53.002;6.488;2023-07-20T09:34:47;1.30;;;0.80;;
54191;SDS011;40101;53.002;6.488;2023-07-20T09:37:19;1.95;;;0.73;;
54191;SDS011;40101;53.002;6.488;2023-07-20T09:39:48;2.63;;;1.25;;
54191;SDS011;40101;53.002;6.488;2023-07-20T09:42:18;2.25;;;1.13;;
54191;SDS011;40101;53.002;6.488;2023-07-20T09:44:43;1.73;;;0.68;;
54191;SDS011;40101;53.002;6.488;2023-07-20T09:47:10;1.67;;;0.60;;
54191;SDS011;40101;53.002;6.488;2023-07-20T09:49:41;1.63;;;0.70;;
54191;SDS011;40101;53.002;6.488;2023-07-20T09:52:11;1.85;;;0.77;;
54191;SDS011;40101;53.002;6.488;2023-07-20T09:54:38;0.98;;;0.70;;
54191;SDS011;40101;53.002;6.488;2023-07-20T09:57:05;1.55;;;0.70;;
54191;SDS011;40101;53.002;6.488;2023-07-20T09:59:37;1.23;;;0.80;;
54191;SDS011;40101;53.002;6.488;2023-07-20T10:02:08;2.38;;;0.93;;
54191;SDS011;40101;53.002;6.488;2023-07-20T10:04:44;3.95;;;1.02;;
54191;SDS011;40101;53.002;6.488;2023-07-20T10:07:11;3.05;;;1.08;;
54191;SDS011;40101;53.002;6.488;2023-07-20T10:09:39;1.75;;;0.95;;
54191;SDS011;40101;53.002;6.488;2023-07-20T10:12:07;3.08;;;1.00;;
54191;SDS011;40101;53.002;6.488;2023-07-20T10:14:35;2.67;;;0.60;;
54191;SDS011;40101;53.002;6.488;2023-07-20T10:17:05;3.70;;;1.55;;
54191;SDS011;40101;53.002;6.488;2023-07-20T10:19:43;2.58;;;1.00;;
54191;SDS011;40101;53.002;6.488;2023-07-20T10:22:14;4.53;;;0.98;;
54191;SDS011;40101;53.002;6.488;2023-07-20T10:24:45;2.03;;;0.90;;
54191;SDS011;40101;53.002;6.488;2023-07-20T10:27:13;2.22;;;0.90;;
54191;SDS011;40101;53.002;6.488;2023-07-20T10:29:40;3.20;;;1.00;;
54191;SDS011;40101;53.002;6.488;2023-07-20T10:32:07;2.53;;;0.82;;
54191;SDS011;40101;53.002;6.488;2023-07-20T10:34:33;2.47;;;1.10;;
54191;SDS011;40101;53.002;6.488;2023-07-20T10:36:59;4.22;;;1.40;;
54191;SDS011;40101;53.002;6.488;2023-07-20T10:39:26;1.95;;;1.00;;
54191;SDS011;40101;53.002;6.488;2023-07-20T10:42:01;4.40;;;1.30;;
54191;SDS011;40101;53.002;6.488;2023-07-20T10:44:36;2.72;;;1.00;;
54191;SDS011;40101;53.002;6.488;2023-07-20T10:47:03;2.80;;;1.02;;
54191;SDS011;40101;53.002;6.488;2023-07-20T10:49:34;2.85;;;0.95;;
54191;SDS011;40101;53.002;6.488;2023-07-20T10:52:20;7.07;;;1.48;;
54191;SDS011;40101;53.002;6.488;2023-07-20T10:54:46;3.95;;;1.20;;
54191;SDS011;40101;53.002;6.488;2023-07-20T10:57:29;2.88;;;1.20;;
54191;SDS011;40101;53.002;6.488;2023-07-20T11:00:09;2.10;;;1.10;;
54191;SDS011;40101;53.002;6.488;2023-07-20T11:05:31;2.45;;;1.10;;
54191;SDS011;40101;53.002;6.488;2023-07-20T11:07:59;2.40;;;0.88;;
54191;SDS011;40101;53.002;6.488;2023-07-20T11:10:24;2.42;;;1.23;;
54191;SDS011;40101;53.002;6.488;2023-07-20T11:16:03;2.25;;;0.98;;
54191;SDS011;40101;53.002;6.488;2023-07-20T11:18:30;3.30;;;0.80;;
54191;SDS011;40101;53.002;6.488;2023-07-20T11:20:58;4.18;;;1.00;;
54191;SDS011;40101;53.002;6.488;2023-07-20T11:23:25;2.00;;;1.10;;
54191;SDS011;40101;53.002;6.488;2023-07-20T11:25:51;3.65;;;1.15;;
54191;SDS011;40101;53.002;6.488;2023-07-20T11:28:17;2.67;;;1.10;;
54191;SDS011;40101;53.002;6.488;2023-07-20T11:30:42;1.30;;;0.93;;
54191;SDS011;40101;53.002;6.488;2023-07-20T11:33:08;3.67;;;1.30;;
54191;SDS011;40101;53.002;6.488;2023-07-20T11:35:35;1.45;;;0.80;;
54191;SDS011;40101;53.002;6.488;2023-07-20T11:38:07;2.67;;;0.93;;
54191;SDS011;40101;53.002;6.488;2023-07-20T11:40:33;2.78;;;0.93;;
54191;SDS011;40101;53.002;6.488;2023-07-20T11:42:59;3.20;;;1.02;;
54191;SDS011;40101;53.002;6.488;2023-07-20T11:45:25;2.67;;;1.02;;
54191;SDS011;40101;53.002;6.488;2023-07-20T11:47:58;4.25;;;0.95;;
54191;SDS011;40101;53.002;6.488;2023-07-20T11:50:23;4.85;;;0.88;;
54191;SDS011;40101;53.002;6.488;2023-07-20T11:52:58;2.25;;;0.75;;
54191;SDS011;40101;53.002;6.488;2023-07-20T11:55:24;1.45;;;0.68;;
54191;SDS011;40101;53.002;6.488;2023-07-20T11:58:05;4.35;;;1.00;;
54191;SDS011;40101;53.002;6.488;2023-07-20T12:00:35;5.40;;;1.00;;
54191;SDS011;40101;53.002;6.488;2023-07-20T12:03:06;1.90;;;1.02;;
54191;SDS011;40101;53.002;6.488;2023-07-20T12:05:32;1.20;;;0.60;;
54191;SDS011;40101;53.002;6.488;2023-07-20T12:07:59;3.40;;;1.08;;
54191;SDS011;40101;53.002;6.488;2023-07-20T12:10:25;4.53;;;1.20;;
54191;SDS011;40101;53.002;6.488;2023-07-20T12:12:51;2.80;;;1.00;;
54191;SDS011;40101;53.002;6.488;2023-07-20T12:18:12;2.58;;;1.20;;
54191;SDS011;40101;53.002;6.488;2023-07-20T12:20:38;2.83;;;1.15;;
54191;SDS011;40101;53.002;6.488;2023-07-20T12:23:08;1.67;;;0.55;;
54191;SDS011;40101;53.002;6.488;2023-07-20T12:25:41;2.50;;;0.98;;
54191;SDS011;40101;53.002;6.488;2023-07-20T12:28:14;4.18;;;1.00;;
54191;SDS011;40101;53.002;6.488;2023-07-20T12:30:42;2.28;;;1.00;;
54191;SDS011;40101;53.002;6.488;2023-07-20T12:33:12;3.08;;;1.00;;
54191;SDS011;40101;53.002;6.488;2023-07-20T12:35:41;1.73;;;0.73;;
54191;SDS011;40101;53.002;6.488;2023-07-20T12:38:08;1.65;;;0.70;;
54191;SDS011;40101;53.002;6.488;2023-07-20T12:40:34;2.33;;;0.90;;
54191;SDS011;40101;53.002;6.488;2023-07-20T12:43:00;3.15;;;0.90;;
54191;SDS011;40101;53.002;6.488;2023-07-20T12:45:25;2.60;;;0.73;;
54191;SDS011;40101;53.002;6.488;2023-07-20T12:47:51;6.20;;;2.08;;
54191;SDS011;40101;53.002;6.488;2023-07-20T12:50:17;2.50;;;0.77;;
54191;SDS011;40101;53.002;6.488;2023-07-20T12:52:43;2.45;;;0.98;;
54191;SDS011;40101;53.002;6.488;2023-07-20T12:55:09;3.97;;;1.17;;
54191;SDS011;40101;53.002;6.488;2023-07-20T12:57:35;1.90;;;0.98;;
54191;SDS011;40101;53.002;6.488;2023-07-20T13:00:05;4.10;;;1.35;;
54191;SDS011;40101;53.002;6.488;2023-07-20T13:05:03;2.00;;;0.90;;
54191;SDS011;40101;53.002;6.488;2023-07-20T13:07:30;1.90;;;0.80;;
54191;SDS011;40101;53.002;6.488;2023-07-20T13:09:57;1.98;;;0.90;;
54191;SDS011;40101;53.002;6.488;2023-07-20T13:12:25;2.33;;;0.80;;
54191;SDS011;40101;53.002;6.488;2023-07-20T13:14:52;1.92;;;1.10;;
54191;SDS011;40101;53.002;6.488;2023-07-20T13:17:18;3.10;;;0.88;;
54191;SDS011;40101;53.002;6.488;2023-07-20T13:19:44;5.20;;;1.17;;
54191;SDS011;40101;53.002;6.488;2023-07-20T13:22:10;2.00;;;0.93;;
54191;SDS011;40101;53.002;6.488;2023-07-20T13:24:36;3.20;;;1.20;;
54191;SDS011;40101;53.002;6.488;2023-07-20T13:27:02;2.15;;;0.82;;
54191;SDS011;40101;53.002;6.488;2023-07-20T13:29:28;2.38;;;0.95;;
54191;SDS011;40101;53.002;6.488;2023-07-20T13:31:53;2.42;;;1.10;;
54191;SDS011;40101;53.002;6.488;2023-07-20T13:34:19;3.85;;;0.90;;
54191;SDS011;40101;53.002;6.488;2023-07-20T13:36:45;2.92;;;0.88;;
54191;SDS011;40101;53.002;6.488;2023-07-20T13:39:10;2.92;;;0.80;;
54191;SDS011;40101;53.002;6.488;2023-07-20T13:41:36;2.25;;;1.00;;
54191;SDS011;40101;53.002;6.488;2023-07-20T13:44:02;1.85;;;0.70;;
54191;SDS011;40101;53.002;6.488;2023-07-20T13:46:27;3.10;;;1.00;;
54191;SDS011;40101;53.002;6.488;2023-07-20T13:48:53;1.77;;;0.88;;
54191;SDS011;40101;53.002;6.488;2023-07-20T13:51:18;3.25;;;0.80;;
54191;SDS011;40101;53.002;6.488;2023-07-20T13:53:48;1.40;;;0.85;;
54191;SDS011;40101;53.002;6.488;2023-07-20T13:56:13;1.48;;;0.77;;
54191;SDS011;40101;53.002;6.488;2023-07-20T13:58:39;2.38;;;1.20;;
54191;SDS011;40101;53.002;6.488;2023-07-20T14:01:05;1.73;;;0.73;;
54191;SDS011;40101;53.002;6.488;2023-07-20T14:03:30;4.25;;;1.10;;
54191;SDS011;40101;53.002;6.488;2023-07-20T14:05:56;3.38;;;1.00;;
54191;SDS011;40101;53.002;6.488;2023-07-20T14:08:22;6.57;;;1.80;;
54191;SDS011;40101;53.002;6.488;2023-07-20T14:10:47;1.95;;;0.90;;
54191;SDS011;40101;53.002;6.488;2023-07-20T14:13:13;1.90;;;1.02;;
54191;SDS011;40101;53.002;6.488;2023-07-20T14:15:39;1.48;;;0.90;;
54191;SDS011;40101;53.002;6.488;2023-07-20T14:18:06;1.67;;;0.93;;
54191;SDS011;40101;53.002;6.488;2023-07-20T14:20:31;3.55;;;0.73;;
54191;SDS011;40101;53.002;6.488;2023-07-20T14:22:57;3.00;;;1.05;;
54191;SDS011;40101;53.002;6.488;2023-07-20T14:25:23;2.72;;;1.05;;
54191;SDS011;40101;53.002;6.488;2023-07-20T14:27:48;3.58;;;1.00;;
54191;SDS011;40101;53.002;6.488;2023-07-20T14:30:14;3.45;;;1.05;;
54191;SDS011;40101;53.002;6.488;2023-07-20T14:32:40;1.88;;;0.90;;
54191;SDS011;40101;53.002;6.488;2023-07-20T14:35:06;2.03;;;0.90;;
54191;SDS011;40101;53.002;6.488;2023-07-20T14:37:34;2.45;;;0.98;;
54191;SDS011;40101;53.002;6.488;2023-07-20T14:39:59;1.00;;;0.73;;
54191;SDS011;40101;53.002;6.488;2023-07-20T14:42:25;1.90;;;0.90;;
54191;SDS011;40101;53.002;6.488;2023-07-20T14:44:51;4.43;;;1.30;;
54191;SDS011;40101;53.002;6.488;2023-07-20T14:47:17;4.00;;;0.85;;
54191;SDS011;40101;53.002;6.488;2023-07-20T14:49:43;10.27;;;1.50;;
54191;SDS011;40101;53.002;6.488;2023-07-20T14:52:09;2.05;;;0.90;;
54191;SDS011;40101;53.002;6.488;2023-07-20T14:54:35;2.13;;;0.80;;
54191;SDS011;40101;53.002;6.488;2023-07-20T14:57:01;3.40;;;0.85;;
54191;SDS011;40101;53.002;6.488;2023-07-20T14:59:27;1.38;;;0.60;;
54191;SDS011;40101;53.002;6.488;2023-07-20T15:01:53;0.68;;;0.45;;
54191;SDS011;40101;53.002;6.488;2023-07-20T15:04:19;1.20;;;0.60;;
54191;SDS011;40101;53.002;6.488;2023-07-20T15:06:44;1.40;;;0.63;;
54191;SDS011;40101;53.002;6.488;2023-07-20T15:09:10;1.70;;;0.70;;
54191;SDS011;40101;53.002;6.488;2023-07-20T15:11:35;1.27;;;0.70;;
54191;SDS011;40101;53.002;6.488;2023-07-20T15:14:02;1.95;;;0.93;;